Time;durP1;ratioP1;P1;durP2;ratioP2;P2;SDS_P1;SDS_P2;PMS_P1;PMS_P2;Temp;Humidity;BMP_temperature;BMP_pressure;BME280_temperature;BME280_humidity;BME280_pressure;Samples;Min_cycle;Max_cycle;Signal;HPM_P1;HPM_P2
2022/06/12 00:01:03;;;;;;;3.13;1.25;;;;;;;;;;5038398;28;20036;-84
2022/06/12 00:03:32;;;;;;;2.65;1.30;;;;;;;;;;5056227;28;20043;-86
2022/06/12 00:05:59;;;;;;;2.65;1.02;;;;;;;;;;5059037;28;20085;-84
2022/06/12 00:08:26;;;;;;;4.63;1.77;;;;;;;;;;5058351;28;20039;-85
2022/06/12 00:10:52;;;;;;;3.45;0.98;;;;;;;;;;5024885;28;20024;-84
2022/06/12 00:13:21;;;;;;;4.57;1.52;;;;;;;;;;5025297;28;20087;-86
2022/06/12 00:15:49;;;;;;;4.65;1.88;;;;;;;;;;5024648;28;20035;-86
2022/06/12 00:18:14;;;;;;;4.80;1.33;;;;;;;;;;5018575;28;20102;-84
2022/06/12 00:20:41;;;;;;;3.80;1.45;;;;;;;;;;5018328;28;20499;-85
2022/06/12 00:23:11;;;;;;;5.13;1.70;;;;;;;;;;5017915;28;20128;-84
2022/06/12 00:25:38;;;;;;;5.97;1.30;;;;;;;;;;5034433;28;20025;-85
2022/06/12 00:28:05;;;;;;;3.85;1.80;;;;;;;;;;5018123;28;20427;-85
2022/06/12 00:30:30;;;;;;;2.85;1.38;;;;;;;;;;5034564;28;20029;-85
2022/06/12 00:32:56;;;;;;;2.97;1.23;;;;;;;;;;5018179;28;20036;-85
2022/06/12 00:35:30;;;;;;;3.25;1.27;;;;;;;;;;5034721;28;20033;-84
2022/06/12 00:37:57;;;;;;;4.03;1.67;;;;;;;;;;5007240;28;20037;-84
2022/06/12 00:40:23;;;;;;;4.07;2.00;;;;;;;;;;5014421;28;20123;-84
2022/06/12 00:42:53;;;;;;;3.78;1.50;;;;;;;;;;5026650;28;20041;-84
2022/06/12 00:45:36;;;;;;;5.07;1.48;;;;;;;;;;5034247;28;20029;-84
2022/06/12 00:48:18;;;;;;;5.00;1.48;;;;;;;;;;5018301;28;20064;-84
2022/06/12 00:50:58;;;;;;;4.20;1.23;;;;;;;;;;5006685;28;20039;-83
2022/06/12 00:53:52;;;;;;;6.68;1.70;;;;;;;;;;5018114;28;20090;-84
2022/06/12 00:56:21;;;;;;;4.78;1.50;;;;;;;;;;4999329;28;20041;-83
2022/06/12 00:58:49;;;;;;;4.45;1.48;;;;;;;;;;4984947;28;20044;-84
2022/06/12 01:01:39;;;;;;;4.30;1.60;;;;;;;;;;5018050;28;20489;-84
2022/06/12 01:06:50;;;;;;;5.13;1.80;;;;;;;;;;5019953;28;20037;-84
2022/06/12 01:09:19;;;;;;;3.53;1.80;;;;;;;;;;5001456;28;20042;-84
2022/06/12 01:11:46;;;;;;;4.40;1.70;;;;;;;;;;5018133;28;20162;-84
2022/06/12 01:14:14;;;;;;;3.65;1.35;;;;;;;;;;5017659;28;20446;-85
2022/06/12 01:16:45;;;;;;;4.22;1.63;;;;;;;;;;5037343;28;20044;-85
2022/06/12 01:19:25;;;;;;;4.03;1.63;;;;;;;;;;5038403;28;20512;-85
2022/06/12 01:22:10;;;;;;;4.78;1.73;;;;;;;;;;5038010;28;20078;-85
2022/06/12 01:25:13;;;;;;;5.07;1.70;;;;;;;;;;5053851;28;20040;-85
2022/06/12 01:27:59;;;;;;;5.10;1.70;;;;;;;;;;5039749;28;20044;-85
2022/06/12 01:30:31;;;;;;;3.47;1.50;;;;;;;;;;5053491;28;20051;-84
2022/06/12 01:33:06;;;;;;;5.60;1.67;;;;;;;;;;5053573;28;20094;-84
2022/06/12 01:35:41;;;;;;;2.65;1.40;;;;;;;;;;5053699;28;20041;-85
2022/06/12 01:38:12;;;;;;;6.18;2.05;;;;;;;;;;5021495;28;20032;-84
2022/06/12 01:40:52;;;;;;;4.07;1.35;;;;;;;;;;5034580;28;20037;-85
2022/06/12 01:43:24;;;;;;;6.18;2.33;;;;;;;;;;5038552;28;20514;-84
2022/06/12 01:46:00;;;;;;;4.95;1.70;;;;;;;;;;5037392;28;20040;-84
2022/06/12 01:48:59;;;;;;;5.95;1.75;;;;;;;;;;5034489;28;20033;-84
2022/06/12 01:51:33;;;;;;;4.38;1.77;;;;;;;;;;5040207;28;20132;-85
2022/06/12 01:54:18;;;;;;;4.85;1.30;;;;;;;;;;5057357;28;20048;-84
2022/06/12 01:57:32;;;;;;;3.83;1.45;;;;;;;;;;5056534;28;20047;-85
2022/06/12 01:59:59;;;;;;;4.80;2.38;;;;;;;;;;5056234;28;20051;-85
2022/06/12 02:02:38;;;;;;;4.45;1.33;;;;;;;;;;5056900;28;20028;-84
2022/06/12 02:05:20;;;;;;;4.40;1.50;;;;;;;;;;5058819;28;20036;-85
2022/06/12 02:07:59;;;;;;;3.30;1.80;;;;;;;;;;5060630;28;20097;-84
2022/06/12 02:10:50;;;;;;;4.45;1.50;;;;;;;;;;5060610;28;20379;-85
2022/06/12 02:13:24;;;;;;;5.32;1.30;;;;;;;;;;5043421;28;20024;-84
2022/06/12 02:16:10;;;;;;;5.07;1.95;;;;;;;;;;5062941;28;20044;-83
2022/06/12 02:18:41;;;;;;;5.47;1.95;;;;;;;;;;5053951;28;20063;-83
2022/06/12 02:21:10;;;;;;;3.33;1.10;;;;;;;;;;5023960;28;20115;-84
2022/06/12 02:23:46;;;;;;;4.00;1.48;;;;;;;;;;5023680;28;20589;-84
2022/06/12 02:26:14;;;;;;;4.60;1.63;;;;;;;;;;5023431;28;20041;-84
2022/06/12 02:28:42;;;;;;;6.07;1.80;;;;;;;;;;5055115;28;20513;-85
2022/06/12 02:31:12;;;;;;;5.30;1.52;;;;;;;;;;5039745;28;20088;-84
2022/06/12 02:33:39;;;;;;;3.25;1.25;;;;;;;;;;5071316;28;20036;-84
2022/06/12 02:36:25;;;;;;;5.07;1.70;;;;;;;;;;5023354;28;20123;-85
2022/06/12 02:38:56;;;;;;;3.92;1.50;;;;;;;;;;5048243;28;20032;-84
2022/06/12 02:41:26;;;;;;;5.50;1.60;;;;;;;;;;5039800;28;20103;-84
2022/06/12 02:43:55;;;;;;;4.00;1.35;;;;;;;;;;5023188;28;20127;-84
2022/06/12 02:46:33;;;;;;;4.60;1.48;;;;;;;;;;5056158;28;20033;-84
2022/06/12 02:48:58;;;;;;;4.13;1.60;;;;;;;;;;5032362;28;20033;-84
2022/06/12 02:51:43;;;;;;;4.30;1.38;;;;;;;;;;5033263;28;20060;-84
2022/06/12 02:54:18;;;;;;;3.20;1.35;;;;;;;;;;5008620;28;20542;-84
2022/06/12 02:57:04;;;;;;;3.78;1.52;;;;;;;;;;5022917;28;20036;-85
2022/06/12 02:59:38;;;;;;;2.25;1.30;;;;;;;;;;5055150;28;20058;-85
2022/06/12 03:02:16;;;;;;;4.93;1.40;;;;;;;;;;5039674;28;20169;-84
2022/06/12 03:04:58;;;;;;;7.00;1.67;;;;;;;;;;5039131;28;20043;-84
2022/06/12 03:07:25;;;;;;;;;;;;;;;;;;5008965;28;20498;-84
2022/06/12 03:09:52;;;;;;;7.43;1.95;;;;;;;;;;5056150;28;19912;-85
2022/06/12 03:12:19;;;;;;;4.13;1.40;;;;;;;;;;5055694;28;20044;-84
2022/06/12 03:14:44;;;;;;;5.38;1.40;;;;;;;;;;5022658;28;20047;-84
2022/06/12 03:17:09;;;;;;;3.30;1.23;;;;;;;;;;5038748;28;20048;-85
2022/06/12 03:19:42;;;;;;;3.67;1.35;;;;;;;;;;5039280;28;20399;-84
2022/06/12 03:22:19;;;;;;;4.35;1.52;;;;;;;;;;5039049;28;20047;-84
2022/06/12 03:25:08;;;;;;;4.05;1.58;;;;;;;;;;5072343;28;20033;-84
2022/06/12 03:27:53;;;;;;;3.60;1.35;;;;;;;;;;5055812;28;20075;-85
2022/06/12 03:30:32;;;;;;;5.53;1.63;;;;;;;;;;5023053;28;20510;-85
2022/06/12 03:33:15;;;;;;;3.58;1.40;;;;;;;;;;5015547;28;20040;-85
2022/06/12 03:35:50;;;;;;;3.60;1.25;;;;;;;;;;5053330;28;20033;-85
2022/06/12 03:38:40;;;;;;;4.18;1.60;;;;;;;;;;5054843;28;20036;-84
2022/06/12 03:41:13;;;;;;;3.83;1.23;;;;;;;;;;5040249;28;20025;-85
2022/06/12 03:44:00;;;;;;;4.40;1.80;;;;;;;;;;5039351;28;20174;-86
2022/06/12 03:46:42;;;;;;;5.07;1.42;;;;;;;;;;5023943;28;20050;-84
2022/06/12 03:49:25;;;;;;;3.83;1.83;;;;;;;;;;5032799;28;20032;-85
2022/06/12 03:52:19;;;;;;;4.68;1.50;;;;;;;;;;5048470;28;20029;-85
2022/06/12 03:55:08;;;;;;;4.80;1.40;;;;;;;;;;5018701;28;20033;-85
2022/06/12 03:58:01;;;;;;;5.65;1.55;;;;;;;;;;5018637;28;20499;-85
2022/06/12 04:00:32;;;;;;;3.08;1.20;;;;;;;;;;5030615;28;20064;-85
2022/06/12 04:02:59;;;;;;;4.32;1.42;;;;;;;;;;5018565;28;20056;-85
2022/06/12 04:05:33;;;;;;;3.38;1.48;;;;;;;;;;4986092;28;20123;-85
2022/06/12 04:07:59;;;;;;;3.70;1.40;;;;;;;;;;5002051;28;20117;-85
2022/06/12 04:10:26;;;;;;;3.35;1.42;;;;;;;;;;5002485;28;20091;-85
2022/06/12 04:12:51;;;;;;;5.22;1.50;;;;;;;;;;5002364;28;20031;-85
2022/06/12 04:15:33;;;;;;;3.95;1.30;;;;;;;;;;4985436;28;20041;-85
2022/06/12 04:17:59;;;;;;;4.13;1.35;;;;;;;;;;5034768;28;20032;-85
2022/06/12 04:20:32;;;;;;;4.53;1.75;;;;;;;;;;5002282;28;20037;-85
2022/06/12 04:23:04;;;;;;;3.80;1.20;;;;;;;;;;5019216;28;20025;-84
2022/06/12 04:26:12;;;;;;;4.53;1.33;;;;;;;;;;5018113;28;20418;-85
2022/06/12 04:28:41;;;;;;;3.33;1.30;;;;;;;;;;4938777;28;20035;-84
2022/06/12 04:31:13;;;;;;;5.15;1.48;;;;;;;;;;4993424;28;20545;-84
2022/06/12 04:34:12;;;;;;;3.70;1.58;;;;;;;;;;5002458;28;20049;-85
2022/06/12 04:36:38;;;;;;;3.95;1.52;;;;;;;;;;5018162;28;20041;-85
2022/06/12 04:39:05;;;;;;;3.40;1.63;;;;;;;;;;4985485;28;20037;-83
2022/06/12 04:41:32;;;;;;;3.30;1.17;;;;;;;;;;4985517;28;20501;-83
2022/06/12 04:43:58;;;;;;;5.20;1.50;;;;;;;;;;4984888;28;20426;-85
2022/06/12 04:46:23;;;;;;;4.30;1.42;;;;;;;;;;5033676;28;20029;-84
2022/06/12 04:48:51;;;;;;;3.15;1.10;;;;;;;;;;5024596;28;20119;-84
2022/06/12 04:51:17;;;;;;;2.85;1.50;;;;;;;;;;5004614;28;20040;-85
2022/06/12 04:53:42;;;;;;;5.63;1.08;;;;;;;;;;5020621;28;20040;-80
2022/06/12 04:56:08;;;;;;;2.35;1.00;;;;;;;;;;5020695;28;20047;-79
2022/06/12 04:58:35;;;;;;;4.18;1.30;;;;;;;;;;5037156;28;20044;-80
2022/06/12 05:01:00;;;;;;;4.57;1.52;;;;;;;;;;5037072;28;20031;-79
2022/06/12 05:03:26;;;;;;;4.40;1.30;;;;;;;;;;5020477;28;20037;-80
2022/06/12 05:05:51;;;;;;;4.97;1.45;;;;;;;;;;5037212;28;20503;-82
2022/06/12 05:08:18;;;;;;;5.80;1.80;;;;;;;;;;5003729;28;20043;-81
2022/06/12 05:10:45;;;;;;;5.78;1.45;;;;;;;;;;5003961;28;20037;-81
2022/06/12 05:13:10;;;;;;;6.47;1.60;;;;;;;;;;5004365;28;20490;-81
2022/06/12 05:15:36;;;;;;;6.28;1.52;;;;;;;;;;5039915;28;20036;-82
2022/06/12 05:18:02;;;;;;;6.13;1.85;;;;;;;;;;5049892;28;20074;-81
2022/06/12 05:20:30;;;;;;;10.73;1.70;;;;;;;;;;5000828;28;20025;-81
2022/06/12 05:22:59;;;;;;;5.45;1.42;;;;;;;;;;5034002;28;20107;-81
2022/06/12 05:25:24;;;;;;;2.92;0.95;;;;;;;;;;5033031;28;20041;-81
2022/06/12 05:27:51;;;;;;;6.88;1.25;;;;;;;;;;5032927;28;20036;-84
2022/06/12 05:30:19;;;;;;;3.97;1.30;;;;;;;;;;5033130;28;20033;-82
2022/06/12 05:32:46;;;;;;;8.95;1.50;;;;;;;;;;5016664;28;20033;-83
2022/06/12 05:35:12;;;;;;;6.95;1.45;;;;;;;;;;5000519;28;20095;-82
2022/06/12 05:37:38;;;;;;;4.60;1.00;;;;;;;;;;5050417;28;20045;-82
2022/06/12 05:40:06;;;;;;;4.20;1.17;;;;;;;;;;5036365;28;20036;-81
2022/06/12 05:42:32;;;;;;;4.90;1.30;;;;;;;;;;5037097;28;20658;-82
2022/06/12 05:44:59;;;;;;;6.05;1.77;;;;;;;;;;5004497;28;20510;-80
2022/06/12 05:47:24;;;;;;;3.08;1.02;;;;;;;;;;5037544;28;20518;-84
2022/06/12 05:49:50;;;;;;;6.93;1.75;;;;;;;;;;5036033;28;20414;-86
2022/06/12 05:52:16;;;;;;;5.43;1.23;;;;;;;;;;5022655;28;20052;-85
2022/06/12 05:54:42;;;;;;;5.35;1.50;;;;;;;;;;5034501;28;20029;-84
2022/06/12 05:57:08;;;;;;;4.07;1.48;;;;;;;;;;5037278;28;20152;-84
2022/06/12 05:59:33;;;;;;;4.00;1.38;;;;;;;;;;5038610;28;20045;-82
2022/06/12 06:01:58;;;;;;;3.17;1.30;;;;;;;;;;5037275;28;20460;-82
2022/06/12 06:04:24;;;;;;;2.45;0.95;;;;;;;;;;5004238;28;20029;-83
2022/06/12 06:06:52;;;;;;;6.65;1.27;;;;;;;;;;5057073;28;20568;-82
2022/06/12 06:09:18;;;;;;;6.63;1.85;;;;;;;;;;5026096;28;20491;-81
2022/06/12 06:11:43;;;;;;;5.63;1.27;;;;;;;;;;5022186;28;20045;-82
2022/06/12 06:14:09;;;;;;;7.40;1.75;;;;;;;;;;5007157;28;20033;-82
2022/06/12 06:16:35;;;;;;;4.80;1.23;;;;;;;;;;5038499;28;20390;-84
2022/06/12 06:19:00;;;;;;;5.03;1.20;;;;;;;;;;5037044;28;20558;-84
2022/06/12 06:21:26;;;;;;;6.10;1.20;;;;;;;;;;5023935;28;20028;-83
2022/06/12 06:23:51;;;;;;;4.68;1.13;;;;;;;;;;5020710;28;20029;-84
2022/06/12 06:26:17;;;;;;;4.38;1.20;;;;;;;;;;5023055;28;20828;-83
2022/06/12 06:28:43;;;;;;;3.47;1.10;;;;;;;;;;5022465;28;20037;-83
2022/06/12 06:31:10;;;;;;;6.40;1.20;;;;;;;;;;5019918;28;20036;-83
2022/06/12 06:33:36;;;;;;;4.80;0.70;;;;;;;;;;5037426;28;20064;-84
2022/06/12 06:36:03;;;;;;;7.57;1.30;;;;;;;;;;5017025;28;20131;-84
2022/06/12 06:38:29;;;;;;;4.90;1.40;;;;;;;;;;5007527;28;20029;-84
2022/06/12 06:40:55;;;;;;;5.50;1.17;;;;;;;;;;5022902;28;20032;-83
2022/06/12 06:43:22;;;;;;;5.30;1.40;;;;;;;;;;5039860;28;20033;-85
2022/06/12 06:48:35;;;;;;;4.47;1.20;;;;;;;;;;5040589;28;20047;-85
2022/06/12 06:51:00;;;;;;;5.97;1.30;;;;;;;;;;5006827;28;20498;-85
2022/06/12 06:53:26;;;;;;;5.40;1.13;;;;;;;;;;5019873;28;20040;-83
2022/06/12 06:55:51;;;;;;;6.50;1.73;;;;;;;;;;5019975;28;20033;-85
2022/06/12 06:58:21;;;;;;;7.38;1.23;;;;;;;;;;5003463;28;20041;-85
2022/06/12 07:00:47;;;;;;;5.68;1.38;;;;;;;;;;5004015;28;20033;-84
2022/06/12 07:03:14;;;;;;;5.63;1.35;;;;;;;;;;5003941;28;20044;-84
2022/06/12 07:05:42;;;;;;;8.82;2.60;;;;;;;;;;5003496;28;20119;-85
2022/06/12 07:08:08;;;;;;;13.20;3.13;;;;;;;;;;5020036;28;20043;-87
2022/06/12 07:10:33;;;;;;;6.93;1.60;;;;;;;;;;4987969;28;20503;-87
2022/06/12 07:13:00;;;;;;;8.60;1.73;;;;;;;;;;4987826;28;20414;-88
2022/06/12 07:15:27;;;;;;;7.68;1.40;;;;;;;;;;5004142;28;20446;-88
2022/06/12 07:17:55;;;;;;;6.82;1.58;;;;;;;;;;5020573;28;20045;-88
2022/06/12 07:20:22;;;;;;;5.43;1.73;;;;;;;;;;4987806;28;20037;-88
2022/06/12 07:22:48;;;;;;;4.97;1.23;;;;;;;;;;4987885;28;20029;-87
2022/06/12 07:25:15;;;;;;;5.63;1.08;;;;;;;;;;4987662;28;20048;-87
2022/06/12 07:27:42;;;;;;;5.50;1.20;;;;;;;;;;5020463;28;20033;-87
2022/06/12 07:30:09;;;;;;;6.22;2.05;;;;;;;;;;5003432;28;20510;-87
2022/06/12 07:32:35;;;;;;;5.85;1.35;;;;;;;;;;5003928;28;20033;-86
2022/06/12 07:35:01;;;;;;;9.48;1.33;;;;;;;;;;5019660;28;20402;-85
2022/06/12 07:37:28;;;;;;;4.22;1.08;;;;;;;;;;4991868;28;20090;-89
2022/06/12 07:39:54;;;;;;;4.88;2.10;;;;;;;;;;5039755;28;20040;-87
2022/06/12 07:42:19;;;;;;;11.57;2.58;;;;;;;;;;5023349;28;20064;-90
2022/06/12 07:44:52;;;;;;;17.67;3.90;;;;;;;;;;5007237;28;20088;-91
2022/06/12 07:47:20;;;;;;;11.10;2.00;;;;;;;;;;5008680;28;20147;-91
2022/06/12 07:49:46;;;;;;;11.85;2.78;;;;;;;;;;5023157;28;20036;-90
2022/06/12 07:52:15;;;;;;;65.78;8.88;;;;;;;;;;5007095;28;20123;-91
2022/06/12 07:54:41;;;;;;;40.05;5.13;;;;;;;;;;5023369;28;20052;-89
2022/06/12 07:57:07;;;;;;;14.57;2.53;;;;;;;;;;5004658;28;20033;-91
2022/06/12 07:59:32;;;;;;;15.18;2.63;;;;;;;;;;5020838;28;20268;-91
2022/06/12 08:01:58;;;;;;;12.75;2.92;;;;;;;;;;5002489;28;20171;-89
2022/06/12 08:04:24;;;;;;;8.82;2.42;;;;;;;;;;5002458;28;20088;-89
2022/06/12 08:06:49;;;;;;;17.05;2.97;;;;;;;;;;5019707;28;20036;-84
2022/06/12 08:09:18;;;;;;;9.90;1.90;;;;;;;;;;5018723;28;20028;-88
2022/06/12 08:11:45;;;;;;;7.65;1.50;;;;;;;;;;4986639;28;20036;-85
2022/06/12 08:14:11;;;;;;;8.00;1.83;;;;;;;;;;5001673;28;20028;-86
2022/06/12 08:16:38;;;;;;;10.95;2.13;;;;;;;;;;4990756;28;20048;-85
2022/06/12 08:20:24;;;;;;;25.50;4.18;;;;;;;;;;5025845;28;20380;-86
2022/06/12 08:21:58;;;;;;;10.38;2.58;;;;;;;;;;5021617;28;20039;-88
2022/06/12 08:24:25;;;;;;;37.90;5.70;;;;;;;;;;5001790;28;20031;-89
2022/06/12 08:26:51;;;;;;;8.85;2.50;;;;;;;;;;5007632;28;20033;-87
2022/06/12 08:29:16;;;;;;;6.00;1.80;;;;;;;;;;5026875;28;20034;-85
2022/06/12 08:31:48;;;;;;;8.82;1.55;;;;;;;;;;5024345;28;20029;-86
2022/06/12 08:34:26;;;;;;;5.45;1.75;;;;;;;;;;5028216;28;20032;-86
2022/06/12 08:36:52;;;;;;;6.22;1.92;;;;;;;;;;5013879;28;20082;-86
2022/06/12 08:39:19;;;;;;;7.28;1.70;;;;;;;;;;5005099;28;20040;-86
2022/06/12 08:41:59;;;;;;;6.10;1.73;;;;;;;;;;5021572;28;20032;-86
2022/06/12 08:44:46;;;;;;;4.22;1.60;;;;;;;;;;5054858;28;20045;-86
2022/06/12 08:47:24;;;;;;;8.13;1.88;;;;;;;;;;5051527;28;20044;-86
2022/06/12 08:49:57;;;;;;;9.10;2.00;;;;;;;;;;5055075;28;20041;-86
2022/06/12 08:52:29;;;;;;;3.58;1.90;;;;;;;;;;5037768;28;20040;-86
2022/06/12 08:55:02;;;;;;;9.02;2.75;;;;;;;;;;5038518;28;20047;-87
2022/06/12 08:57:51;;;;;;;5.80;2.13;;;;;;;;;;5038316;28;20037;-87
2022/06/12 09:00:20;;;;;;;4.03;1.80;;;;;;;;;;5031494;28;20381;-87
2022/06/12 09:02:46;;;;;;;7.90;2.13;;;;;;;;;;5018202;28;20033;-87
2022/06/12 09:05:14;;;;;;;5.60;2.00;;;;;;;;;;5001701;28;20035;-88
2022/06/12 09:08:13;;;;;;;6.32;2.45;;;;;;;;;;5017900;28;20033;-89
2022/06/12 09:10:50;;;;;;;6.97;2.38;;;;;;;;;;5034293;28;20028;-86
2022/06/12 09:13:38;;;;;;;6.63;2.03;;;;;;;;;;5001252;28;20431;-87
2022/06/12 09:16:19;;;;;;;6.93;2.17;;;;;;;;;;5032718;28;20143;-89
2022/06/12 09:18:51;;;;;;;6.32;1.85;;;;;;;;;;5037143;28;20040;-88
2022/06/12 09:21:36;;;;;;;4.75;2.03;;;;;;;;;;5051426;28;20036;-87
2022/06/12 09:24:21;;;;;;;6.55;2.03;;;;;;;;;;5025413;28;20071;-88
2022/06/12 09:26:56;;;;;;;5.43;2.20;;;;;;;;;;5009976;28;20035;-88
2022/06/12 09:29:32;;;;;;;10.02;2.65;;;;;;;;;;5036568;28;20033;-88
2022/06/12 09:32:01;;;;;;;8.30;1.42;;;;;;;;;;5053562;28;20028;-86
2022/06/12 09:34:29;;;;;;;6.10;1.83;;;;;;;;;;5047932;28;20029;-86
2022/06/12 09:40:05;;;;;;;7.22;1.90;;;;;;;;;;5071852;28;20036;-86
2022/06/12 09:42:41;;;;;;;5.90;1.85;;;;;;;;;;5033380;28;20040;-84
2022/06/12 09:45:18;;;;;;;6.55;1.83;;;;;;;;;;5019526;28;20037;-85
2022/06/12 09:47:51;;;;;;;9.25;2.55;;;;;;;;;;5019749;28;20085;-84
2022/06/12 09:50:42;;;;;;;10.70;2.28;;;;;;;;;;5004026;28;20032;-86
2022/06/12 09:53:22;;;;;;;8.77;2.00;;;;;;;;;;5033681;28;20029;-85
2022/06/12 09:55:52;;;;;;;8.82;1.98;;;;;;;;;;5053590;28;20045;-84
2022/06/12 09:58:22;;;;;;;8.68;1.98;;;;;;;;;;5029054;28;20029;-83
2022/06/12 10:00:52;;;;;;;9.13;2.20;;;;;;;;;;5033402;28;20039;-85
2022/06/12 10:03:26;;;;;;;8.65;2.22;;;;;;;;;;5036049;28;20065;-83
2022/06/12 10:06:26;;;;;;;8.27;2.65;;;;;;;;;;5053532;28;20048;-89
2022/06/12 10:09:14;;;;;;;7.35;1.85;;;;;;;;;;5034034;28;20040;-93
2022/06/12 10:11:52;;;;;;;6.10;1.85;;;;;;;;;;5038010;28;20053;-92
2022/06/12 10:14:44;;;;;;;7.03;1.77;;;;;;;;;;5037412;28;20033;-93
2022/06/12 10:17:18;;;;;;;6.72;1.95;;;;;;;;;;5037905;28;20040;-94
2022/06/12 10:19:51;;;;;;;4.82;2.00;;;;;;;;;;5054147;28;20036;-93
2022/06/12 10:22:21;;;;;;;6.57;1.92;;;;;;;;;;5054618;28;20109;-89
2022/06/12 10:24:48;;;;;;;6.40;1.83;;;;;;;;;;5022518;28;20033;-91
2022/06/12 10:27:18;;;;;;;6.88;1.80;;;;;;;;;;5021608;28;20032;-90
2022/06/12 10:29:54;;;;;;;7.15;1.52;;;;;;;;;;5024429;28;20028;-89
2022/06/12 10:32:21;;;;;;;7.55;1.58;;;;;;;;;;5054256;28;20020;-88
2022/06/12 10:34:47;;;;;;;7.72;1.70;;;;;;;;;;5024394;28;20116;-90
2022/06/12 10:37:24;;;;;;;4.65;1.45;;;;;;;;;;5041136;28;20059;-85
2022/06/12 10:40:03;;;;;;;7.82;2.33;;;;;;;;;;5024202;28;20029;-83
2022/06/12 10:42:41;;;;;;;6.35;2.13;;;;;;;;;;5023989;28;20039;-88
2022/06/12 10:45:25;;;;;;;8.65;2.20;;;;;;;;;;5040659;28;20069;-88
2022/06/12 10:47:51;;;;;;;5.95;1.67;;;;;;;;;;5025890;28;20028;-88
2022/06/12 10:50:23;;;;;;;5.82;2.13;;;;;;;;;;5040947;28;20032;-88
2022/06/12 10:53:02;;;;;;;7.53;2.40;;;;;;;;;;5049365;28;20033;-87
2022/06/12 10:55:38;;;;;;;5.13;1.45;;;;;;;;;;5040764;28;20020;-87
2022/06/12 10:58:12;;;;;;;7.25;1.67;;;;;;;;;;5041255;28;20526;-88
2022/06/12 11:00:40;;;;;;;7.93;2.03;;;;;;;;;;5041025;28;20127;-86
2022/06/12 11:03:21;;;;;;;6.22;1.40;;;;;;;;;;5040892;28;20498;-87
2022/06/12 11:06:13;;;;;;;7.30;1.42;;;;;;;;;;5040480;28;20154;-86
2022/06/12 11:09:21;;;;;;;5.82;1.60;;;;;;;;;;5041509;28;20044;-87
2022/06/12 11:12:10;;;;;;;7.03;1.92;;;;;;;;;;4982157;28;20034;-89
2022/06/12 11:15:01;;;;;;;10.45;2.92;;;;;;;;;;5036601;28;20048;-87
2022/06/12 11:17:36;;;;;;;15.35;6.70;;;;;;;;;;5025238;28;20099;-88
2022/06/12 11:20:13;;;;;;;9.13;3.28;;;;;;;;;;5057327;28;20076;-90
2022/06/12 11:23:04;;;;;;;9.63;4.82;;;;;;;;;;5041061;28;20090;-89
2022/06/12 11:25:55;;;;;;;10.10;3.13;;;;;;;;;;5033603;28;20411;-89
2022/06/12 11:28:23;;;;;;;8.02;1.80;;;;;;;;;;5056970;28;20074;-88
2022/06/12 11:31:17;;;;;;;7.80;1.55;;;;;;;;;;5040617;28;20398;-92
2022/06/12 11:33:58;;;;;;;4.10;1.30;;;;;;;;;;5040626;28;20032;-90
2022/06/12 11:36:32;;;;;;;8.85;2.00;;;;;;;;;;5039274;28;20051;-93
2022/06/12 11:39:05;;;;;;;7.30;1.40;;;;;;;;;;5039873;28;20511;-89
2022/06/12 11:41:39;;;;;;;6.65;2.10;;;;;;;;;;5039840;28;20055;-84
2022/06/12 11:44:30;;;;;;;8.32;1.95;;;;;;;;;;5039223;28;20040;-87
2022/06/12 11:47:13;;;;;;;7.07;1.83;;;;;;;;;;4994117;28;20069;-86
2022/06/12 11:49:56;;;;;;;6.70;2.00;;;;;;;;;;5034532;28;20120;-85
2022/06/12 11:52:35;;;;;;;8.45;2.28;;;;;;;;;;5035846;28;20057;-85
2022/06/12 11:55:17;;;;;;;6.75;1.73;;;;;;;;;;5029860;28;20052;-85
2022/06/12 11:58:06;;;;;;;8.10;1.55;;;;;;;;;;5052303;28;20395;-85
2022/06/12 12:01:01;;;;;;;4.38;1.85;;;;;;;;;;5021457;28;20036;-85
2022/06/12 12:03:47;;;;;;;5.90;2.00;;;;;;;;;;5037917;28;20041;-85
2022/06/12 12:06:34;;;;;;;8.95;1.73;;;;;;;;;;5035626;28;20063;-85
2022/06/12 12:09:22;;;;;;;9.77;1.92;;;;;;;;;;5029006;28;20525;-87
2022/06/12 12:11:52;;;;;;;5.20;1.20;;;;;;;;;;5002335;28;20514;-85
2022/06/12 12:14:23;;;;;;;7.53;1.30;;;;;;;;;;5018663;28;20032;-85
2022/06/12 12:16:55;;;;;;;7.32;1.50;;;;;;;;;;5019221;28;20033;-85
2022/06/12 12:19:30;;;;;;;5.97;1.33;;;;;;;;;;5029537;28;20036;-87
2022/06/12 12:21:58;;;;;;;5.65;1.17;;;;;;;;;;5023088;28;20059;-88
2022/06/12 12:24:31;;;;;;;5.32;1.27;;;;;;;;;;5022292;28;20033;-85
2022/06/12 12:26:59;;;;;;;7.65;1.77;;;;;;;;;;5005816;28;20024;-86
2022/06/12 12:29:28;;;;;;;4.93;1.50;;;;;;;;;;5021814;28;20131;-87
2022/06/12 12:31:54;;;;;;;5.68;1.50;;;;;;;;;;5038674;28;20047;-87
2022/06/12 12:34:21;;;;;;;5.50;1.40;;;;;;;;;;5022225;28;20036;-86
2022/06/12 12:42:23;;;;;;;5.65;1.48;;;;;;;;;;5040951;28;20028;-87
2022/06/12 12:44:50;;;;;;;6.30;1.47;;;;;;;;;;5030055;28;20131;-87
2022/06/12 12:47:27;;;;;;;6.32;1.90;;;;;;;;;;5021755;28;20109;-87
2022/06/12 12:50:06;;;;;;;5.95;1.70;;;;;;;;;;4998644;28;20034;-87
2022/06/12 12:52:50;;;;;;;6.25;1.70;;;;;;;;;;5009037;28;20132;-87
2022/06/12 12:55:20;;;;;;;5.53;2.30;;;;;;;;;;4999994;28;20132;-87
2022/06/12 12:57:46;;;;;;;7.35;1.27;;;;;;;;;;5030823;28;20038;-87
2022/06/12 13:00:18;;;;;;;4.53;1.20;;;;;;;;;;5051479;28;20041;-87
2022/06/12 13:02:53;;;;;;;4.30;1.10;;;;;;;;;;5018452;28;20576;-86
2022/06/12 13:05:48;;;;;;;3.22;1.30;;;;;;;;;;5034834;28;20318;-87
2022/06/12 13:08:33;;;;;;;7.35;1.95;;;;;;;;;;5006769;28;20045;-87
2022/06/12 13:11:05;;;;;;;4.75;1.48;;;;;;;;;;5030565;28;20558;-87
2022/06/12 13:13:49;;;;;;;4.60;1.80;;;;;;;;;;5031544;28;20542;-88
2022/06/12 13:16:38;;;;;;;6.18;1.70;;;;;;;;;;5035049;28;20045;-87
2022/06/12 13:19:34;;;;;;;7.05;2.10;;;;;;;;;;5037918;28;20036;-88
2022/06/12 13:22:18;;;;;;;6.43;1.70;;;;;;;;;;5054649;28;20040;-87
2022/06/12 13:25:03;;;;;;;5.85;1.70;;;;;;;;;;5037863;28;20040;-87
2022/06/12 13:27:31;;;;;;;6.82;1.92;;;;;;;;;;5037706;28;20081;-87
2022/06/12 13:29:57;;;;;;;4.72;1.60;;;;;;;;;;5021474;28;20086;-87
2022/06/12 13:32:34;;;;;;;6.53;2.03;;;;;;;;;;5021987;28;20387;-88
2022/06/12 13:35:06;;;;;;;7.10;1.63;;;;;;;;;;5021419;28;20106;-87
2022/06/12 13:37:33;;;;;;;7.53;1.95;;;;;;;;;;5004889;28;20060;-87
2022/06/12 13:39:59;;;;;;;5.13;1.83;;;;;;;;;;5018115;28;20037;-88
2022/06/12 13:42:26;;;;;;;6.90;1.45;;;;;;;;;;5018339;28;20033;-90
2022/06/12 13:44:56;;;;;;;4.65;1.58;;;;;;;;;;5002552;28;20922;-90
2022/06/12 13:47:32;;;;;;;6.97;1.38;;;;;;;;;;5030823;28;20040;-88
2022/06/12 13:50:18;;;;;;;6.70;1.17;;;;;;;;;;5014648;28;20119;-89
2022/06/12 13:53:06;;;;;;;6.55;1.48;;;;;;;;;;5039680;28;20043;-89
2022/06/12 13:55:59;;;;;;;7.45;1.85;;;;;;;;;;5021643;28;20087;-90
2022/06/12 13:58:32;;;;;;;6.13;1.38;;;;;;;;;;5022338;28;20040;-89
2022/06/12 14:01:17;;;;;;;6.25;1.42;;;;;;;;;;5040736;28;20452;-90
2022/06/12 14:03:53;;;;;;;6.40;1.70;;;;;;;;;;5043846;28;20039;-90
2022/06/12 14:06:24;;;;;;;7.38;1.35;;;;;;;;;;5025856;28;20037;-90
2022/06/12 14:08:52;;;;;;;9.35;1.35;;;;;;;;;;5025380;28;20090;-90
2022/06/12 14:11:23;;;;;;;6.18;1.52;;;;;;;;;;5040988;28;20487;-90
2022/06/12 14:13:48;;;;;;;9.18;1.27;;;;;;;;;;5038285;28;20094;-83
2022/06/12 14:16:23;;;;;;;3.72;1.48;;;;;;;;;;5040472;28;20468;-85
2022/06/12 14:19:03;;;;;;;7.00;1.42;;;;;;;;;;5040486;28;20044;-85
2022/06/12 14:21:36;;;;;;;7.20;1.58;;;;;;;;;;5024992;28;20410;-85
2022/06/12 14:24:18;;;;;;;7.32;2.33;;;;;;;;;;5041592;28;20495;-82
2022/06/12 14:26:45;;;;;;;6.80;1.52;;;;;;;;;;5042202;28;20040;-84
2022/06/12 14:29:36;;;;;;;5.45;1.15;;;;;;;;;;5023678;28;20091;-85
2022/06/12 14:32:05;;;;;;;3.58;1.42;;;;;;;;;;5025194;28;20028;-88
2022/06/12 14:34:31;;;;;;;6.05;2.17;;;;;;;;;;5040868;28;20052;-87
2022/06/12 14:36:59;;;;;;;4.57;1.33;;;;;;;;;;5024446;28;20032;-87
2022/06/12 14:39:28;;;;;;;5.90;1.30;;;;;;;;;;5040646;28;20112;-87
2022/06/12 14:41:59;;;;;;;5.13;1.20;;;;;;;;;;5056952;28;20524;-86
2022/06/12 14:44:29;;;;;;;4.93;1.08;;;;;;;;;;5024331;28;20162;-87
2022/06/12 14:47:26;;;;;;;4.50;1.50;;;;;;;;;;5024350;28;20091;-87
2022/06/12 14:49:52;;;;;;;7.20;1.55;;;;;;;;;;5010761;28;20131;-87
2022/06/12 14:52:25;;;;;;;8.02;1.98;;;;;;;;;;5020416;28;20029;-87
2022/06/12 14:54:51;;;;;;;4.15;1.27;;;;;;;;;;5005523;28;20128;-87
2022/06/12 14:57:17;;;;;;;7.07;1.63;;;;;;;;;;5004059;28;20040;-86
2022/06/12 14:59:49;;;;;;;4.78;1.40;;;;;;;;;;4988218;28;20124;-86
2022/06/12 15:02:32;;;;;;;5.15;1.42;;;;;;;;;;4987833;28;20135;-87
2022/06/12 15:04:58;;;;;;;13.45;1.35;;;;;;;;;;5004257;28;20086;-86
2022/06/12 15:07:24;;;;;;;7.38;2.22;;;;;;;;;;5004752;28;20041;-87
2022/06/12 15:09:50;;;;;;;4.15;1.88;;;;;;;;;;5040045;28;20051;-87
2022/06/12 15:12:19;;;;;;;5.15;1.80;;;;;;;;;;5039592;28;20529;-87
2022/06/12 15:14:46;;;;;;;7.25;2.08;;;;;;;;;;5007560;28;20621;-87
2022/06/12 15:17:13;;;;;;;6.32;2.00;;;;;;;;;;5023381;28;20120;-85
2022/06/12 15:19:39;;;;;;;7.30;1.55;;;;;;;;;;5023188;28;20036;-86
2022/06/12 15:22:05;;;;;;;6.03;1.58;;;;;;;;;;5022664;28;20027;-86
2022/06/12 15:24:32;;;;;;;19.80;4.10;;;;;;;;;;5039293;28;20576;-86
2022/06/12 15:29:48;;;;;;;68.70;8.68;;;;;;;;;;5041759;28;20040;-87
2022/06/12 15:32:20;;;;;;;48.35;6.75;;;;;;;;;;5008748;28;20036;-86
2022/06/12 15:34:46;;;;;;;18.33;3.20;;;;;;;;;;5056290;28;20106;-86
2022/06/12 15:37:12;;;;;;;10.85;2.25;;;;;;;;;;5022829;28;20149;-88